sensor_id;sensor_type;location;lat;lon;timestamp;temperature;humidity
33564;DHT22;19894;48.452;11.494;2023-05-24T00:01:07;19.90;56.60
33564;DHT22;19894;48.452;11.494;2023-05-24T00:03:33;20.00;56.70
33564;DHT22;19894;48.452;11.494;2023-05-24T00:06:01;20.00;56.80
33564;DHT22;19894;48.452;11.494;2023-05-24T00:08:28;20.00;56.90
33564;DHT22;19894;48.452;11.494;2023-05-24T00:10:53;20.00;56.90
33564;DHT22;19894;48.452;11.494;2023-05-24T00:13:19;20.00;56.90
33564;DHT22;19894;48.452;11.494;2023-05-24T00:15:44;20.00;57.00
33564;DHT22;19894;48.452;11.494;2023-05-24T00:18:10;20.00;57.00
33564;DHT22;19894;48.452;11.494;2023-05-24T00:20:35;19.90;57.00
33564;DHT22;19894;48.452;11.494;2023-05-24T00:23:01;19.90;56.90
33564;DHT22;19894;48.452;11.494;2023-05-24T00:25:26;19.90;56.90
33564;DHT22;19894;48.452;11.494;2023-05-24T00:27:52;20.00;56.90
33564;DHT22;19894;48.452;11.494;2023-05-24T00:30:17;19.90;56.80
33564;DHT22;19894;48.452;11.494;2023-05-24T00:32:43;19.90;56.80
33564;DHT22;19894;48.452;11.494;2023-05-24T00:35:09;19.90;56.70
33564;DHT22;19894;48.452;11.494;2023-05-24T00:37:34;19.90;56.70
33564;DHT22;19894;48.452;11.494;2023-05-24T00:40:01;19.90;56.60
33564;DHT22;19894;48.452;11.494;2023-05-24T00:42:28;19.90;56.60
33564;DHT22;19894;48.452;11.494;2023-05-24T00:44:54;19.90;56.60
33564;DHT22;19894;48.452;11.494;2023-05-24T00:47:19;19.90;56.60
33564;DHT22;19894;48.452;11.494;2023-05-24T00:49:45;19.90;56.70
33564;DHT22;19894;48.452;11.494;2023-05-24T00:52:11;19.90;56.60
33564;DHT22;19894;48.452;11.494;2023-05-24T00:54:37;19.90;56.60
33564;DHT22;19894;48.452;11.494;2023-05-24T00:57:05;19.90;56.60
33564;DHT22;19894;48.452;11.494;2023-05-24T00:59:31;19.90;56.60
33564;DHT22;19894;48.452;11.494;2023-05-24T01:01:57;20.00;56.60
33564;DHT22;19894;48.452;11.494;2023-05-24T01:04:22;19.90;56.60
33564;DHT22;19894;48.452;11.494;2023-05-24T01:09:28;19.90;56.60
33564;DHT22;19894;48.452;11.494;2023-05-24T01:14:52;20.00;56.70
33564;DHT22;19894;48.452;11.494;2023-05-24T01:17:35;20.00;56.80
33564;DHT22;19894;48.452;11.494;2023-05-24T01:20:07;19.90;56.70
33564;DHT22;19894;48.452;11.494;2023-05-24T01:22:37;19.90;56.70
33564;DHT22;19894;48.452;11.494;2023-05-24T01:27:58;19.90;56.70
33564;DHT22;19894;48.452;11.494;2023-05-24T01:30:26;19.90;56.70
33564;DHT22;19894;48.452;11.494;2023-05-24T01:32:53;19.90;56.70
33564;DHT22;19894;48.452;11.494;2023-05-24T01:35:18;19.90;56.60
33564;DHT22;19894;48.452;11.494;2023-05-24T01:37:44;19.90;56.50
33564;DHT22;19894;48.452;11.494;2023-05-24T01:40:10;19.90;56.50
33564;DHT22;19894;48.452;11.494;2023-05-24T01:42:53;19.90;56.40
33564;DHT22;19894;48.452;11.494;2023-05-24T01:45:34;19.90;56.30
33564;DHT22;19894;48.452;11.494;2023-05-24T01:50:57;19.90;56.30
33564;DHT22;19894;48.452;11.494;2023-05-24T01:53:25;19.90;56.40
33564;DHT22;19894;48.452;11.494;2023-05-24T01:55:56;19.90;56.40
33564;DHT22;19894;48.452;11.494;2023-05-24T01:58:24;19.90;56.40
33564;DHT22;19894;48.452;11.494;2023-05-24T02:00:51;19.90;56.30
33564;DHT22;19894;48.452;11.494;2023-05-24T02:03:17;19.90;56.30
33564;DHT22;19894;48.452;11.494;2023-05-24T02:05:44;19.90;56.20
33564;DHT22;19894;48.452;11.494;2023-05-24T02:08:10;19.90;56.20
33564;DHT22;19894;48.452;11.494;2023-05-24T02:10:40;19.90;56.20
33564;DHT22;19894;48.452;11.494;2023-05-24T02:13:06;20.00;56.30
33564;DHT22;19894;48.452;11.494;2023-05-24T02:15:32;19.90;56.20
33564;DHT22;19894;48.452;11.494;2023-05-24T02:18:00;19.90;56.30
33564;DHT22;19894;48.452;11.494;2023-05-24T02:20:26;19.90;56.40
33564;DHT22;19894;48.452;11.494;2023-05-24T02:22:58;19.90;56.40
33564;DHT22;19894;48.452;11.494;2023-05-24T02:25:24;19.90;56.50
33564;DHT22;19894;48.452;11.494;2023-05-24T02:27:50;19.90;56.40
33564;DHT22;19894;48.452;11.494;2023-05-24T02:30:16;19.90;56.30
33564;DHT22;19894;48.452;11.494;2023-05-24T02:32:42;19.90;56.30
33564;DHT22;19894;48.452;11.494;2023-05-24T02:35:07;19.90;56.30
33564;DHT22;19894;48.452;11.494;2023-05-24T02:37:33;19.90;56.30
33564;DHT22;19894;48.452;11.494;2023-05-24T02:39:58;19.90;56.30
33564;DHT22;19894;48.452;11.494;2023-05-24T02:42:24;19.90;56.10
33564;DHT22;19894;48.452;11.494;2023-05-24T02:44:49;19.90;56.00
33564;DHT22;19894;48.452;11.494;2023-05-24T02:47:17;19.90;56.10
33564;DHT22;19894;48.452;11.494;2023-05-24T02:49:43;19.90;56.00
33564;DHT22;19894;48.452;11.494;2023-05-24T02:52:08;19.90;55.80
33564;DHT22;19894;48.452;11.494;2023-05-24T02:54:34;19.90;55.80
33564;DHT22;19894;48.452;11.494;2023-05-24T02:57:01;19.90;55.70
33564;DHT22;19894;48.452;11.494;2023-05-24T02:59:27;19.90;55.80
33564;DHT22;19894;48.452;11.494;2023-05-24T03:01:52;19.90;55.80
33564;DHT22;19894;48.452;11.494;2023-05-24T03:04:18;19.90;56.30
33564;DHT22;19894;48.452;11.494;2023-05-24T03:06:44;19.90;55.60
33564;DHT22;19894;48.452;11.494;2023-05-24T03:09:10;19.90;55.60
33564;DHT22;19894;48.452;11.494;2023-05-24T03:11:35;19.90;55.50
33564;DHT22;19894;48.452;11.494;2023-05-24T03:14:01;19.90;55.50
33564;DHT22;19894;48.452;11.494;2023-05-24T03:16:26;19.90;55.40
33564;DHT22;19894;48.452;11.494;2023-05-24T03:18:52;19.90;55.40
33564;DHT22;19894;48.452;11.494;2023-05-24T03:21:20;19.90;55.40
33564;DHT22;19894;48.452;11.494;2023-05-24T03:23:47;19.90;56.00
33564;DHT22;19894;48.452;11.494;2023-05-24T03:26:14;19.90;55.60
33564;DHT22;19894;48.452;11.494;2023-05-24T03:28:39;19.90;55.70
33564;DHT22;19894;48.452;11.494;2023-05-24T03:31:05;19.90;55.70
33564;DHT22;19894;48.452;11.494;2023-05-24T03:33:31;19.90;55.70
33564;DHT22;19894;48.452;11.494;2023-05-24T03:35:57;19.90;55.70
33564;DHT22;19894;48.452;11.494;2023-05-24T03:38:22;19.90;55.90
33564;DHT22;19894;48.452;11.494;2023-05-24T03:40:48;19.90;55.50
33564;DHT22;19894;48.452;11.494;2023-05-24T03:43:13;19.90;55.20
33564;DHT22;19894;48.452;11.494;2023-05-24T03:45:39;19.90;55.10
33564;DHT22;19894;48.452;11.494;2023-05-24T03:48:05;19.90;55.00
33564;DHT22;19894;48.452;11.494;2023-05-24T03:50:31;19.90;55.10
33564;DHT22;19894;48.452;11.494;2023-05-24T03:52:56;19.90;55.20
33564;DHT22;19894;48.452;11.494;2023-05-24T03:55:22;19.90;55.20
33564;DHT22;19894;48.452;11.494;2023-05-24T03:57:47;19.90;55.10
33564;DHT22;19894;48.452;11.494;2023-05-24T04:00:13;19.90;54.90
33564;DHT22;19894;48.452;11.494;2023-05-24T04:02:39;19.80;55.50
33564;DHT22;19894;48.452;11.494;2023-05-24T04:05:05;19.90;55.00
33564;DHT22;19894;48.452;11.494;2023-05-24T04:07:37;19.90;54.90
33564;DHT22;19894;48.452;11.494;2023-05-24T04:10:04;19.90;54.90
33564;DHT22;19894;48.452;11.494;2023-05-24T04:12:30;19.90;54.80
33564;DHT22;19894;48.452;11.494;2023-05-24T04:14:56;19.90;54.80
33564;DHT22;19894;48.452;11.494;2023-05-24T04:17:22;19.90;54.80
33564;DHT22;19894;48.452;11.494;2023-05-24T04:19:51;19.90;54.70
33564;DHT22;19894;48.452;11.494;2023-05-24T04:22:17;19.90;54.70
33564;DHT22;19894;48.452;11.494;2023-05-24T04:24:46;19.90;54.70
33564;DHT22;19894;48.452;11.494;2023-05-24T04:27:12;19.90;54.70
33564;DHT22;19894;48.452;11.494;2023-05-24T04:29:40;19.90;55.00
33564;DHT22;19894;48.452;11.494;2023-05-24T04:32:06;19.90;55.10
33564;DHT22;19894;48.452;11.494;2023-05-24T04:34:34;19.90;55.10
33564;DHT22;19894;48.452;11.494;2023-05-24T04:37:00;19.90;55.20
33564;DHT22;19894;48.452;11.494;2023-05-24T04:39:28;19.90;55.10
33564;DHT22;19894;48.452;11.494;2023-05-24T04:41:54;19.90;55.10
33564;DHT22;19894;48.452;11.494;2023-05-24T04:44:20;19.90;55.00
33564;DHT22;19894;48.452;11.494;2023-05-24T04:46:46;19.90;55.00
33564;DHT22;19894;48.452;11.494;2023-05-24T04:49:11;19.90;54.90
33564;DHT22;19894;48.452;11.494;2023-05-24T04:51:37;19.90;54.60
33564;DHT22;19894;48.452;11.494;2023-05-24T04:54:04;19.90;54.70
33564;DHT22;19894;48.452;11.494;2023-05-24T04:56:34;19.80;54.70
33564;DHT22;19894;48.452;11.494;2023-05-24T04:59:00;19.90;54.80
33564;DHT22;19894;48.452;11.494;2023-05-24T05:01:26;19.90;54.70
33564;DHT22;19894;48.452;11.494;2023-05-24T05:03:52;19.90;54.60
33564;DHT22;19894;48.452;11.494;2023-05-24T05:06:17;19.90;54.60
33564;DHT22;19894;48.452;11.494;2023-05-24T05:08:43;19.80;54.50
33564;DHT22;19894;48.452;11.494;2023-05-24T05:11:08;19.90;54.60
33564;DHT22;19894;48.452;11.494;2023-05-24T05:13:34;19.80;54.60
33564;DHT22;19894;48.452;11.494;2023-05-24T05:16:00;19.80;54.50
33564;DHT22;19894;48.452;11.494;2023-05-24T05:18:26;19.90;54.50
33564;DHT22;19894;48.452;11.494;2023-05-24T05:20:51;19.90;54.50
33564;DHT22;19894;48.452;11.494;2023-05-24T05:23:17;19.90;54.50
33564;DHT22;19894;48.452;11.494;2023-05-24T05:25:43;19.90;55.00
33564;DHT22;19894;48.452;11.494;2023-05-24T05:28:08;19.80;54.40
33564;DHT22;19894;48.452;11.494;2023-05-24T05:30:34;19.90;54.50
33564;DHT22;19894;48.452;11.494;2023-05-24T05:32:59;19.90;54.50
33564;DHT22;19894;48.452;11.494;2023-05-24T05:35:25;19.90;54.50
33564;DHT22;19894;48.452;11.494;2023-05-24T05:37:51;19.90;54.60
33564;DHT22;19894;48.452;11.494;2023-05-24T05:40:16;19.90;54.80
33564;DHT22;19894;48.452;11.494;2023-05-24T05:42:42;19.90;54.70
33564;DHT22;19894;48.452;11.494;2023-05-24T05:45:08;19.90;54.90
33564;DHT22;19894;48.452;11.494;2023-05-24T05:47:33;19.90;54.90
33564;DHT22;19894;48.452;11.494;2023-05-24T05:49:59;19.90;54.90
33564;DHT22;19894;48.452;11.494;2023-05-24T05:52:25;19.90;54.90
33564;DHT22;19894;48.452;11.494;2023-05-24T05:54:50;19.80;54.70
33564;DHT22;19894;48.452;11.494;2023-05-24T05:57:16;19.90;54.70
33564;DHT22;19894;48.452;11.494;2023-05-24T05:59:43;19.90;54.70
33564;DHT22;19894;48.452;11.494;2023-05-24T06:02:09;19.80;54.60
33564;DHT22;19894;48.452;11.494;2023-05-24T06:04:36;19.80;54.50
33564;DHT22;19894;48.452;11.494;2023-05-24T06:07:02;19.80;54.30
33564;DHT22;19894;48.452;11.494;2023-05-24T06:09:28;19.90;54.30
33564;DHT22;19894;48.452;11.494;2023-05-24T06:11:53;19.80;54.20
33564;DHT22;19894;48.452;11.494;2023-05-24T06:14:19;19.80;54.30
33564;DHT22;19894;48.452;11.494;2023-05-24T06:16:46;19.80;54.30
33564;DHT22;19894;48.452;11.494;2023-05-24T06:19:12;19.80;54.40
33564;DHT22;19894;48.452;11.494;2023-05-24T06:21:38;19.80;54.30
33564;DHT22;19894;48.452;11.494;2023-05-24T06:24:05;19.80;54.30
33564;DHT22;19894;48.452;11.494;2023-05-24T06:26:35;19.90;54.30
33564;DHT22;19894;48.452;11.494;2023-05-24T06:29:01;19.80;54.30
33564;DHT22;19894;48.452;11.494;2023-05-24T06:31:27;19.80;54.20
33564;DHT22;19894;48.452;11.494;2023-05-24T06:33:52;19.90;54.30
33564;DHT22;19894;48.452;11.494;2023-05-24T06:36:18;19.80;54.30
33564;DHT22;19894;48.452;11.494;2023-05-24T06:38:43;19.90;54.30
33564;DHT22;19894;48.452;11.494;2023-05-24T06:41:09;19.90;54.30
33564;DHT22;19894;48.452;11.494;2023-05-24T06:43:34;19.90;54.50
33564;DHT22;19894;48.452;11.494;2023-05-24T06:46:00;19.90;54.60
33564;DHT22;19894;48.452;11.494;2023-05-24T06:48:26;19.90;54.70
33564;DHT22;19894;48.452;11.494;2023-05-24T06:50:51;19.90;54.70
33564;DHT22;19894;48.452;11.494;2023-05-24T06:53:17;19.90;54.70
33564;DHT22;19894;48.452;11.494;2023-05-24T06:55:42;19.90;54.80
33564;DHT22;19894;48.452;11.494;2023-05-24T06:58:08;19.90;55.20
33564;DHT22;19894;48.452;11.494;2023-05-24T07:00:39;19.80;54.70
33564;DHT22;19894;48.452;11.494;2023-05-24T07:03:05;19.80;54.50
33564;DHT22;19894;48.452;11.494;2023-05-24T07:05:31;19.90;54.60
33564;DHT22;19894;48.452;11.494;2023-05-24T07:07:56;19.80;54.50
33564;DHT22;19894;48.452;11.494;2023-05-24T07:10:22;19.80;54.60
33564;DHT22;19894;48.452;11.494;2023-05-24T07:12:47;19.80;54.50
33564;DHT22;19894;48.452;11.494;2023-05-24T07:15:13;19.80;54.50
33564;DHT22;19894;48.452;11.494;2023-05-24T07:17:38;19.80;54.30
33564;DHT22;19894;48.452;11.494;2023-05-24T07:20:04;19.80;54.20
33564;DHT22;19894;48.452;11.494;2023-05-24T07:22:38;19.80;54.10
33564;DHT22;19894;48.452;11.494;2023-05-24T07:25:04;19.80;54.20
33564;DHT22;19894;48.452;11.494;2023-05-24T07:27:29;19.80;54.20
33564;DHT22;19894;48.452;11.494;2023-05-24T07:29:55;19.80;54.10
33564;DHT22;19894;48.452;11.494;2023-05-24T07:32:21;19.80;54.10
33564;DHT22;19894;48.452;11.494;2023-05-24T07:34:47;19.80;54.20
33564;DHT22;19894;48.452;11.494;2023-05-24T07:37:13;19.80;54.10
33564;DHT22;19894;48.452;11.494;2023-05-24T07:39:38;19.90;54.20
33564;DHT22;19894;48.452;11.494;2023-05-24T07:42:04;19.80;54.10
33564;DHT22;19894;48.452;11.494;2023-05-24T07:44:30;19.90;54.20
33564;DHT22;19894;48.452;11.494;2023-05-24T07:46:56;19.90;54.20
33564;DHT22;19894;48.452;11.494;2023-05-24T07:49:22;19.90;54.20
33564;DHT22;19894;48.452;11.494;2023-05-24T07:51:48;19.80;54.30
33564;DHT22;19894;48.452;11.494;2023-05-24T07:54:13;19.80;54.50
33564;DHT22;19894;48.452;11.494;2023-05-24T07:56:42;19.90;54.60
33564;DHT22;19894;48.452;11.494;2023-05-24T07:59:08;19.90;54.60
33564;DHT22;19894;48.452;11.494;2023-05-24T08:01:34;19.90;54.60
33564;DHT22;19894;48.452;11.494;2023-05-24T08:04:01;19.80;54.50
33564;DHT22;19894;48.452;11.494;2023-05-24T08:06:29;19.80;54.40
33564;DHT22;19894;48.452;11.494;2023-05-24T08:08:55;19.80;54.30
33564;DHT22;19894;48.452;11.494;2023-05-24T08:11:21;19.80;54.20
33564;DHT22;19894;48.452;11.494;2023-05-24T08:13:46;19.80;54.20
33564;DHT22;19894;48.452;11.494;2023-05-24T08:16:12;19.80;54.30
33564;DHT22;19894;48.452;11.494;2023-05-24T08:18:38;19.80;54.20
33564;DHT22;19894;48.452;11.494;2023-05-24T08:21:03;19.80;54.20
33564;DHT22;19894;48.452;11.494;2023-05-24T08:23:29;19.80;54.10
33564;DHT22;19894;48.452;11.494;2023-05-24T08:25:56;19.80;54.10
33564;DHT22;19894;48.452;11.494;2023-05-24T08:28:22;19.80;54.00
33564;DHT22;19894;48.452;11.494;2023-05-24T08:30:48;19.80;54.00
33564;DHT22;19894;48.452;11.494;2023-05-24T08:33:13;19.80;54.00
33564;DHT22;19894;48.452;11.494;2023-05-24T08:35:39;19.80;53.90
33564;DHT22;19894;48.452;11.494;2023-05-24T08:38:05;19.80;53.90
33564;DHT22;19894;48.452;11.494;2023-05-24T08:40:31;19.80;53.80
33564;DHT22;19894;48.452;11.494;2023-05-24T08:42:59;19.80;53.80
33564;DHT22;19894;48.452;11.494;2023-05-24T08:45:28;19.80;53.80
33564;DHT22;19894;48.452;11.494;2023-05-24T08:47:55;19.90;53.80
33564;DHT22;19894;48.452;11.494;2023-05-24T08:50:21;19.90;53.80
33564;DHT22;19894;48.452;11.494;2023-05-24T08:52:47;19.90;53.80
33564;DHT22;19894;48.452;11.494;2023-05-24T08:55:14;19.90;53.80
33564;DHT22;19894;48.452;11.494;2023-05-24T08:57:40;19.90;53.90
33564;DHT22;19894;48.452;11.494;2023-05-24T09:00:07;19.90;54.10
33564;DHT22;19894;48.452;11.494;2023-05-24T09:02:36;19.90;54.10
33564;DHT22;19894;48.452;11.494;2023-05-24T09:05:03;19.90;54.20
33564;DHT22;19894;48.452;11.494;2023-05-24T09:07:30;19.90;54.20
33564;DHT22;19894;48.452;11.494;2023-05-24T09:09:57;19.80;54.10
33564;DHT22;19894;48.452;11.494;2023-05-24T09:12:26;19.80;54.20
33564;DHT22;19894;48.452;11.494;2023-05-24T09:14:54;19.80;54.10
33564;DHT22;19894;48.452;11.494;2023-05-24T09:17:19;19.80;54.00
33564;DHT22;19894;48.452;11.494;2023-05-24T09:19:46;19.80;54.00
33564;DHT22;19894;48.452;11.494;2023-05-24T09:22:15;19.80;54.00
33564;DHT22;19894;48.452;11.494;2023-05-24T09:24:48;19.80;54.00
33564;DHT22;19894;48.452;11.494;2023-05-24T09:27:18;19.80;53.90
33564;DHT22;19894;48.452;11.494;2023-05-24T09:29:47;19.80;53.90
33564;DHT22;19894;48.452;11.494;2023-05-24T09:32:14;19.80;53.80
33564;DHT22;19894;48.452;11.494;2023-05-24T09:34:44;19.80;53.70
33564;DHT22;19894;48.452;11.494;2023-05-24T09:37:14;19.80;53.60
33564;DHT22;19894;48.452;11.494;2023-05-24T09:39:46;19.80;53.50
33564;DHT22;19894;48.452;11.494;2023-05-24T09:42:25;19.80;53.30
33564;DHT22;19894;48.452;11.494;2023-05-24T09:45:12;19.80;53.20
33564;DHT22;19894;48.452;11.494;2023-05-24T09:47:40;19.80;53.10
33564;DHT22;19894;48.452;11.494;2023-05-24T09:50:11;19.80;53.10
33564;DHT22;19894;48.452;11.494;2023-05-24T09:52:38;19.80;53.00
33564;DHT22;19894;48.452;11.494;2023-05-24T09:55:18;19.80;53.00
33564;DHT22;19894;48.452;11.494;2023-05-24T09:57:48;19.80;53.00
33564;DHT22;19894;48.452;11.494;2023-05-24T10:00:20;19.90;53.00
33564;DHT22;19894;48.452;11.494;2023-05-24T10:03:03;19.80;53.50
33564;DHT22;19894;48.452;11.494;2023-05-24T10:05:29;19.90;53.50
33564;DHT22;19894;48.452;11.494;2023-05-24T10:07:56;19.80;53.50
33564;DHT22;19894;48.452;11.494;2023-05-24T10:10:28;19.80;53.60
33564;DHT22;19894;48.452;11.494;2023-05-24T10:12:57;19.80;53.60
33564;DHT22;19894;48.452;11.494;2023-05-24T10:15:24;19.80;53.60
33564;DHT22;19894;48.452;11.494;2023-05-24T10:17:51;19.80;53.60
33564;DHT22;19894;48.452;11.494;2023-05-24T10:20:17;19.80;53.50
33564;DHT22;19894;48.452;11.494;2023-05-24T10:22:44;19.80;53.50
33564;DHT22;19894;48.452;11.494;2023-05-24T10:25:20;19.80;53.50
33564;DHT22;19894;48.452;11.494;2023-05-24T10:27:48;19.80;53.50
33564;DHT22;19894;48.452;11.494;2023-05-24T10:30:40;19.80;53.40
33564;DHT22;19894;48.452;11.494;2023-05-24T10:33:07;19.80;53.40
33564;DHT22;19894;48.452;11.494;2023-05-24T10:35:34;19.80;53.30
33564;DHT22;19894;48.452;11.494;2023-05-24T10:38:06;19.80;53.10
33564;DHT22;19894;48.452;11.494;2023-05-24T10:40:32;19.80;53.00
33564;DHT22;19894;48.452;11.494;2023-05-24T10:42:58;19.80;53.00
33564;DHT22;19894;48.452;11.494;2023-05-24T10:47:53;19.80;52.80
33564;DHT22;19894;48.452;11.494;2023-05-24T10:50:21;19.80;52.80
33564;DHT22;19894;48.452;11.494;2023-05-24T10:52:49;19.80;52.70
33564;DHT22;19894;48.452;11.494;2023-05-24T10:55:18;19.80;52.80
33564;DHT22;19894;48.452;11.494;2023-05-24T10:57:43;19.80;52.70
33564;DHT22;19894;48.452;11.494;2023-05-24T11:03:22;19.80;52.60
33564;DHT22;19894;48.452;11.494;2023-05-24T11:08:34;19.80;52.80
33564;DHT22;19894;48.452;11.494;2023-05-24T11:11:10;19.80;53.10
33564;DHT22;19894;48.452;11.494;2023-05-24T11:13:40;19.80;53.30
33564;DHT22;19894;48.452;11.494;2023-05-24T11:16:06;19.80;53.40
33564;DHT22;19894;48.452;11.494;2023-05-24T11:18:32;19.80;53.30
33564;DHT22;19894;48.452;11.494;2023-05-24T11:21:03;19.80;53.40
33564;DHT22;19894;48.452;11.494;2023-05-24T11:23:30;19.80;53.40
33564;DHT22;19894;48.452;11.494;2023-05-24T11:25:56;19.80;53.30
33564;DHT22;19894;48.452;11.494;2023-05-24T11:28:22;19.80;53.20
33564;DHT22;19894;48.452;11.494;2023-05-24T11:30:48;19.80;53.20
33564;DHT22;19894;48.452;11.494;2023-05-24T11:33:22;19.80;53.20
33564;DHT22;19894;48.452;11.494;2023-05-24T11:35:53;19.80;53.10
33564;DHT22;19894;48.452;11.494;2023-05-24T11:38:20;19.80;53.10
33564;DHT22;19894;48.452;11.494;2023-05-24T11:40:47;19.80;53.00
33564;DHT22;19894;48.452;11.494;2023-05-24T11:43:18;19.80;53.00
33564;DHT22;19894;48.452;11.494;2023-05-24T11:45:52;19.80;53.10
33564;DHT22;19894;48.452;11.494;2023-05-24T11:48:18;19.80;52.60
33564;DHT22;19894;48.452;11.494;2023-05-24T11:50:46;19.80;52.60
33564;DHT22;19894;48.452;11.494;2023-05-24T11:53:14;19.80;52.40
33564;DHT22;19894;48.452;11.494;2023-05-24T11:55:40;19.80;52.40
33564;DHT22;19894;48.452;11.494;2023-05-24T11:58:19;19.80;52.20
33564;DHT22;19894;48.452;11.494;2023-05-24T12:00:47;19.80;52.20
33564;DHT22;19894;48.452;11.494;2023-05-24T12:03:13;19.80;52.10
33564;DHT22;19894;48.452;11.494;2023-05-24T12:05:39;19.80;51.90
33564;DHT22;19894;48.452;11.494;2023-05-24T12:08:07;19.80;51.90
33564;DHT22;19894;48.452;11.494;2023-05-24T12:10:38;19.80;51.80
33564;DHT22;19894;48.452;11.494;2023-05-24T12:13:17;19.80;51.90
33564;DHT22;19894;48.452;11.494;2023-05-24T12:15:44;19.80;52.20
33564;DHT22;19894;48.452;11.494;2023-05-24T12:18:22;19.80;52.50
33564;DHT22;19894;48.452;11.494;2023-05-24T12:20:49;19.80;52.60
33564;DHT22;19894;48.452;11.494;2023-05-24T12:23:17;19.80;52.70
33564;DHT22;19894;48.452;11.494;2023-05-24T12:25:43;19.80;52.80
33564;DHT22;19894;48.452;11.494;2023-05-24T12:28:08;19.80;52.70
33564;DHT22;19894;48.452;11.494;2023-05-24T12:30:36;19.80;52.80
33564;DHT22;19894;48.452;11.494;2023-05-24T12:33:02;19.80;52.80
33564;DHT22;19894;48.452;11.494;2023-05-24T12:35:28;19.80;52.70
33564;DHT22;19894;48.452;11.494;2023-05-24T12:37:59;19.80;52.50
33564;DHT22;19894;48.452;11.494;2023-05-24T12:40:25;19.80;52.60
33564;DHT22;19894;48.452;11.494;2023-05-24T12:42:57;19.80;52.60
33564;DHT22;19894;48.452;11.494;2023-05-24T12:45:24;19.80;52.60
33564;DHT22;19894;48.452;11.494;2023-05-24T12:47:53;19.80;52.60
33564;DHT22;19894;48.452;11.494;2023-05-24T12:50:22;19.80;52.20
33564;DHT22;19894;48.452;11.494;2023-05-24T12:52:48;19.70;52.30
33564;DHT22;19894;48.452;11.494;2023-05-24T12:55:18;19.80;52.00
33564;DHT22;19894;48.452;11.494;2023-05-24T12:57:44;19.80;51.90
33564;DHT22;19894;48.452;11.494;2023-05-24T13:00:17;19.80;51.90
33564;DHT22;19894;48.452;11.494;2023-05-24T13:02:43;19.80;51.80
33564;DHT22;19894;48.452;11.494;2023-05-24T13:05:09;19.80;51.90
33564;DHT22;19894;48.452;11.494;2023-05-24T13:07:35;19.80;51.70
33564;DHT22;19894;48.452;11.494;2023-05-24T13:10:01;19.80;51.60
33564;DHT22;19894;48.452;11.494;2023-05-24T13:12:26;19.80;51.80
33564;DHT22;19894;48.452;11.494;2023-05-24T13:14:52;19.80;51.70
33564;DHT22;19894;48.452;11.494;2023-05-24T13:17:18;19.80;51.70
33564;DHT22;19894;48.452;11.494;2023-05-24T13:19:45;19.80;51.60
33564;DHT22;19894;48.452;11.494;2023-05-24T13:22:11;19.80;51.90
33564;DHT22;19894;48.452;11.494;2023-05-24T13:24:37;19.80;52.00
33564;DHT22;19894;48.452;11.494;2023-05-24T13:27:03;19.80;52.30
33564;DHT22;19894;48.452;11.494;2023-05-24T13:29:29;19.80;52.40
33564;DHT22;19894;48.452;11.494;2023-05-24T13:31:54;19.80;52.60
33564;DHT22;19894;48.452;11.494;2023-05-24T13:34:21;19.80;52.60
33564;DHT22;19894;48.452;11.494;2023-05-24T13:36:49;19.80;52.60
33564;DHT22;19894;48.452;11.494;2023-05-24T13:39:14;19.80;52.50
33564;DHT22;19894;48.452;11.494;2023-05-24T13:41:41;19.80;52.30
33564;DHT22;19894;48.452;11.494;2023-05-24T13:44:06;19.80;52.40
33564;DHT22;19894;48.452;11.494;2023-05-24T13:46:32;19.80;52.40
33564;DHT22;19894;48.452;11.494;2023-05-24T13:48:58;19.80;52.80
33564;DHT22;19894;48.452;11.494;2023-05-24T13:51:24;19.80;52.30
33564;DHT22;19894;48.452;11.494;2023-05-24T13:53:51;19.80;52.20
33564;DHT22;19894;48.452;11.494;2023-05-24T13:56:17;19.80;52.10
33564;DHT22;19894;48.452;11.494;2023-05-24T13:58:43;19.80;51.90
33564;DHT22;19894;48.452;11.494;2023-05-24T14:01:09;19.80;51.20
33564;DHT22;19894;48.452;11.494;2023-05-24T14:03:34;19.80;51.20
33564;DHT22;19894;48.452;11.494;2023-05-24T14:06:01;19.80;51.10
33564;DHT22;19894;48.452;11.494;2023-05-24T14:08:27;19.80;51.00
33564;DHT22;19894;48.452;11.494;2023-05-24T14:10:52;19.80;51.10
33564;DHT22;19894;48.452;11.494;2023-05-24T14:13:18;19.80;50.90
33564;DHT22;19894;48.452;11.494;2023-05-24T14:15:44;19.80;50.80
33564;DHT22;19894;48.452;11.494;2023-05-24T14:18:11;19.80;50.70
33564;DHT22;19894;48.452;11.494;2023-05-24T14:20:37;19.80;50.70
33564;DHT22;19894;48.452;11.494;2023-05-24T14:23:05;19.80;50.70
33564;DHT22;19894;48.452;11.494;2023-05-24T14:25:31;19.80;50.70
33564;DHT22;19894;48.452;11.494;2023-05-24T14:27:57;19.80;51.10
33564;DHT22;19894;48.452;11.494;2023-05-24T14:30:24;19.80;51.50
33564;DHT22;19894;48.452;11.494;2023-05-24T14:32:50;19.80;51.80
33564;DHT22;19894;48.452;11.494;2023-05-24T14:35:16;19.80;51.80
33564;DHT22;19894;48.452;11.494;2023-05-24T14:37:42;19.80;52.40
33564;DHT22;19894;48.452;11.494;2023-05-24T14:40:08;19.80;52.00
33564;DHT22;19894;48.452;11.494;2023-05-24T14:42:34;19.80;52.00
33564;DHT22;19894;48.452;11.494;2023-05-24T14:45:00;19.80;51.70
33564;DHT22;19894;48.452;11.494;2023-05-24T14:47:26;19.80;51.60
33564;DHT22;19894;48.452;11.494;2023-05-24T14:49:52;19.80;51.50
33564;DHT22;19894;48.452;11.494;2023-05-24T14:52:18;19.80;51.60
33564;DHT22;19894;48.452;11.494;2023-05-24T14:54:44;19.80;51.60
33564;DHT22;19894;48.452;11.494;2023-05-24T14:57:10;19.80;51.50
33564;DHT22;19894;48.452;11.494;2023-05-24T14:59:36;19.70;51.50
33564;DHT22;19894;48.452;11.494;2023-05-24T15:02:02;19.80;51.60
33564;DHT22;19894;48.452;11.494;2023-05-24T15:04:27;19.80;50.80
33564;DHT22;19894;48.452;11.494;2023-05-24T15:06:53;19.80;51.30
33564;DHT22;19894;48.452;11.494;2023-05-24T15:09:18;19.70;50.50
33564;DHT22;19894;48.452;11.494;2023-05-24T15:11:44;19.80;50.80
33564;DHT22;19894;48.452;11.494;2023-05-24T15:14:10;19.80;50.70
33564;DHT22;19894;48.452;11.494;2023-05-24T15:16:36;19.70;50.30
33564;DHT22;19894;48.452;11.494;2023-05-24T15:19:01;19.80;50.30
33564;DHT22;19894;48.452;11.494;2023-05-24T15:21:27;19.80;50.20
33564;DHT22;19894;48.452;11.494;2023-05-24T15:23:52;19.90;50.70
33564;DHT22;19894;48.452;11.494;2023-05-24T15:26:18;19.80;50.40
33564;DHT22;19894;48.452;11.494;2023-05-24T15:28:44;19.80;50.30
33564;DHT22;19894;48.452;11.494;2023-05-24T15:31:10;19.80;50.30
33564;DHT22;19894;48.452;11.494;2023-05-24T15:33:36;19.80;50.20